createdAt,value
2018-07-25T00:00:49.893Z,0.114
2018-07-25T00:02:50.160Z,0.160
2018-07-25T00:04:49.766Z,0.120
2018-07-25T00:06:50.181Z,0.165
2018-07-25T00:08:50.526Z,0.120
2018-07-25T00:10:49.795Z,0.137
2018-07-25T00:12:50.298Z,0.160
2018-07-25T00:14:50.537Z,0.200
2018-07-25T00:16:49.953Z,0.154
2018-07-25T00:18:50.099Z,0.148
2018-07-25T00:20:50.370Z,0.194
2018-07-25T00:22:50.526Z,0.160
2018-07-25T00:24:50.768Z,0.160
2018-07-25T00:26:50.372Z,0.137
2018-07-25T00:28:50.593Z,0.171
2018-07-25T00:30:49.778Z,0.154
2018-07-25T00:32:50.084Z,0.251
2018-07-25T00:34:50.745Z,0.148
2018-07-25T00:36:50.043Z,0.148
2018-07-25T00:38:50.246Z,0.137
2018-07-25T00:40:50.545Z,0.160
2018-07-25T00:42:50.734Z,0.188
2018-07-25T00:44:49.945Z,0.160
2018-07-25T00:46:50.477Z,0.171
2018-07-25T00:48:50.674Z,0.171
2018-07-25T00:50:49.840Z,0.165
2018-07-25T00:52:50.157Z,0.108
2018-07-25T00:54:50.321Z,0.143
2018-07-25T00:56:49.937Z,0.182
2018-07-25T00:58:50.278Z,0.120
2018-07-25T01:00:50.514Z,0.143
2018-07-25T01:02:50.692Z,0.143
2018-07-25T01:04:50.532Z,0.108
2018-07-25T01:06:50.013Z,0.137
2018-07-25T01:08:50.344Z,0.148
2018-07-25T01:10:50.554Z,0.160
2018-07-25T01:12:49.881Z,0.148
2018-07-25T01:14:50.066Z,0.137
2018-07-25T01:16:50.511Z,0.097
2018-07-25T01:18:49.853Z,0.103
2018-07-25T01:20:49.980Z,0.182
2018-07-25T01:22:50.164Z,0.165
2018-07-25T01:24:50.371Z,0.165
2018-07-25T01:26:50.220Z,0.171
2018-07-25T01:28:50.561Z,0.114
2018-07-25T01:30:49.782Z,0.171
2018-07-25T01:32:50.020Z,0.154
2018-07-25T01:34:50.479Z,0.143
2018-07-25T01:36:50.065Z,0.194
2018-07-25T01:38:50.412Z,0.108
2018-07-25T01:40:50.677Z,0.125
2018-07-25T01:42:49.902Z,0.148
2018-07-25T01:44:50.167Z,0.131
2018-07-25T01:46:50.688Z,0.143
2018-07-25T01:48:49.920Z,0.143
2018-07-25T01:50:50.126Z,0.154
2018-07-25T01:52:50.347Z,0.137
2018-07-25T01:54:50.731Z,0.125
2018-07-25T01:56:50.322Z,0.160
2018-07-25T01:58:50.490Z,0.131
2018-07-25T02:00:50.646Z,0.143
2018-07-25T02:02:49.848Z,0.160
2018-07-25T02:04:50.322Z,0.182
2018-07-25T02:06:49.844Z,0.194
2018-07-25T02:08:50.115Z,0.194
2018-07-25T02:10:50.387Z,0.148
2018-07-25T02:12:50.609Z,0.120
2018-07-25T02:14:49.802Z,0.148
2018-07-25T02:16:50.447Z,0.160
2018-07-25T02:18:50.700Z,0.177
2018-07-25T02:20:49.899Z,0.125
2018-07-25T02:22:50.028Z,0.137
2018-07-25T02:24:50.243Z,0.097
2018-07-25T02:26:50.677Z,0.171
2018-07-25T02:28:50.134Z,0.125
2018-07-25T02:30:50.363Z,0.177
2018-07-25T02:32:50.597Z,0.171
2018-07-25T02:34:50.269Z,0.177
2018-07-25T02:36:49.795Z,0.143
2018-07-25T02:38:50.037Z,0.200
2018-07-25T02:40:50.212Z,0.148
2018-07-25T02:42:50.520Z,0.194
2018-07-25T02:44:49.926Z,0.160
2018-07-25T02:46:50.594Z,0.143
2018-07-25T02:48:49.776Z,0.097
2018-07-25T02:50:50.065Z,0.165
2018-07-25T02:52:50.317Z,0.131
2018-07-25T02:54:50.516Z,0.154
2018-07-25T02:56:50.431Z,0.137
2018-07-25T02:58:49.837Z,0.103
2018-07-25T03:00:50.018Z,0.148
2018-07-25T03:02:50.396Z,0.154
2018-07-25T03:04:50.110Z,0.131
2018-07-25T03:06:50.622Z,0.160
2018-07-25T03:08:51.013Z,0.154
2018-07-25T03:10:50.386Z,0.091
2018-07-25T03:12:50.639Z,0.171
2018-07-25T03:14:49.940Z,0.222
2018-07-25T03:16:51.043Z,0.143
2018-07-25T03:18:50.621Z,0.171
2018-07-25T03:20:49.860Z,0.143
2018-07-25T03:22:50.208Z,0.131
2018-07-25T03:24:50.429Z,0.182
2018-07-25T03:26:50.048Z,0.194
2018-07-25T03:28:50.366Z,0.120
2018-07-25T03:30:50.721Z,0.120
2018-07-25T03:32:49.800Z,0.188
2018-07-25T03:34:50.615Z,0.114
2018-07-25T03:36:50.105Z,0.160
2018-07-25T03:38:50.270Z,0.165
2018-07-25T03:40:50.454Z,0.165
2018-07-25T03:42:50.718Z,0.245
2018-07-25T03:44:49.899Z,0.148
2018-07-25T03:46:50.268Z,0.165
2018-07-25T03:48:50.611Z,0.125
2018-07-25T03:50:49.966Z,0.131
2018-07-25T03:52:50.223Z,0.182
2018-07-25T03:54:50.452Z,0.120
2018-07-25T03:56:50.052Z,0.148
2018-07-25T03:58:50.211Z,0.165
2018-07-25T04:00:50.389Z,0.165
2018-07-25T04:02:50.652Z,0.143
2018-07-25T04:04:50.198Z,0.154
2018-07-25T04:06:50.599Z,0.148
2018-07-25T04:08:49.923Z,0.143
2018-07-25T04:10:50.148Z,0.143
2018-07-25T04:12:50.455Z,0.188
2018-07-25T04:14:50.708Z,0.177
2018-07-25T04:16:50.220Z,0.137
2018-07-25T04:18:50.435Z,0.148
2018-07-25T04:20:49.792Z,0.165
2018-07-25T04:22:50.052Z,0.188
2018-07-25T04:24:50.729Z,0.160
2018-07-25T04:26:50.189Z,0.148
2018-07-25T04:28:50.431Z,0.131
2018-07-25T04:30:50.594Z,0.137
2018-07-25T04:32:49.768Z,0.143
2018-07-25T04:34:51.101Z,0.188
2018-07-25T04:36:49.822Z,0.177
2018-07-25T04:38:50.030Z,0.165
2018-07-25T04:40:50.210Z,0.137
2018-07-25T04:42:50.736Z,0.205
2018-07-25T04:44:49.923Z,0.165
2018-07-25T04:46:50.555Z,0.177
2018-07-25T04:48:50.760Z,0.131
2018-07-25T04:50:50.102Z,0.211
2018-07-25T04:52:50.362Z,0.188
2018-07-25T04:54:50.584Z,0.165
2018-07-25T04:56:50.099Z,0.143
2018-07-25T04:58:50.280Z,0.125
2018-07-25T05:00:50.688Z,0.177
2018-07-25T05:02:49.950Z,0.125
2018-07-25T05:04:50.592Z,0.137
2018-07-25T05:06:50.059Z,0.171
2018-07-25T05:08:50.322Z,0.160
2018-07-25T05:10:50.585Z,0.131
2018-07-25T05:12:49.873Z,0.165
2018-07-25T05:14:50.054Z,0.114
2018-07-25T05:16:50.557Z,0.114
2018-07-25T05:18:49.817Z,0.114
2018-07-25T05:20:49.989Z,0.143
2018-07-25T05:22:50.284Z,0.148
2018-07-25T05:24:50.503Z,0.160
2018-07-25T05:26:50.088Z,0.154
2018-07-25T05:28:50.344Z,0.171
2018-07-25T05:30:50.590Z,0.160
2018-07-25T05:32:50.759Z,0.154
2018-07-25T05:34:50.515Z,0.165
2018-07-25T05:36:50.678Z,0.125
2018-07-25T05:38:49.926Z,0.148
2018-07-25T05:40:50.161Z,0.137
2018-07-25T05:42:50.421Z,0.154
2018-07-25T05:44:50.676Z,0.165
2018-07-25T05:46:50.038Z,0.125
2018-07-25T05:48:50.394Z,0.165
2018-07-25T05:50:50.660Z,0.137
2018-07-25T05:52:50.735Z,0.114
2018-07-25T05:54:50.044Z,0.200
2018-07-25T05:56:51.032Z,0.200
2018-07-25T05:58:50.552Z,0.177
2018-07-25T06:00:50.143Z,0.200
2018-07-25T06:02:50.874Z,0.228
2018-07-25T06:04:50.781Z,0.148
2018-07-25T06:06:50.380Z,0.148
2018-07-25T06:08:50.626Z,0.165
2018-07-25T06:10:50.768Z,0.177
2018-07-25T06:12:50.472Z,0.165
2018-07-25T06:14:50.131Z,0.194
2018-07-25T06:16:50.628Z,0.165
2018-07-25T06:18:49.800Z,0.165
2018-07-25T06:20:50.223Z,0.108
2018-07-25T06:22:50.649Z,0.160
2018-07-25T06:24:50.799Z,0.103
2018-07-25T06:26:50.289Z,0.171
2018-07-25T06:28:50.560Z,0.137
2018-07-25T06:30:50.683Z,0.137
2018-07-25T06:32:49.827Z,0.131
2018-07-25T06:34:50.844Z,0.131
2018-07-25T06:36:50.646Z,0.148
2018-07-25T06:38:49.819Z,0.086
2018-07-25T06:40:50.073Z,0.125
2018-07-25T06:42:50.259Z,0.200
2018-07-25T06:44:50.625Z,0.137
2018-07-25T06:46:50.168Z,0.143
2018-07-25T06:48:50.284Z,0.120
2018-07-25T06:50:50.860Z,0.160
2018-07-25T06:52:50.393Z,0.228
2018-07-25T06:54:50.625Z,0.114
2018-07-25T06:56:49.980Z,0.120
2018-07-25T06:58:50.191Z,0.125
2018-07-25T07:00:50.401Z,0.125
2018-07-25T07:02:50.555Z,0.125
2018-07-25T07:04:50.271Z,0.137
2018-07-25T07:06:50.103Z,0.143
2018-07-25T07:08:50.326Z,0.108
2018-07-25T07:10:50.533Z,0.160
2018-07-25T07:12:49.841Z,0.194
2018-07-25T07:14:49.987Z,0.160
2018-07-25T07:16:50.461Z,0.154
2018-07-25T07:18:50.698Z,0.154
2018-07-25T07:20:49.793Z,0.182
2018-07-25T07:22:49.978Z,0.177
2018-07-25T07:24:50.368Z,0.171
2018-07-25T07:26:49.788Z,0.200
2018-07-25T07:28:49.956Z,0.154
2018-07-25T07:30:50.412Z,0.137
2018-07-25T07:32:50.560Z,0.177
2018-07-25T07:34:50.213Z,0.137
2018-07-25T07:36:50.684Z,0.137
2018-07-25T07:38:50.063Z,0.182
2018-07-25T07:40:50.260Z,0.171
2018-07-25T07:42:50.442Z,0.171
2018-07-25T07:44:50.670Z,0.154
2018-07-25T07:46:50.017Z,0.177
2018-07-25T07:48:50.158Z,0.114
2018-07-25T07:50:50.760Z,0.091
2018-07-25T07:52:50.051Z,0.177
2018-07-25T07:54:50.245Z,0.182
2018-07-25T07:56:50.674Z,0.171
2018-07-25T07:58:50.019Z,0.143
2018-07-25T08:00:50.171Z,0.143
2018-07-25T08:02:50.429Z,0.182
2018-07-25T08:04:50.209Z,0.143
2018-07-25T08:06:49.816Z,0.143
2018-07-25T08:08:50.140Z,0.137
2018-07-25T08:10:50.580Z,0.171
2018-07-25T08:12:50.222Z,0.171
2018-07-25T08:14:49.838Z,0.171
2018-07-25T08:16:50.698Z,0.171
2018-07-25T08:18:50.155Z,0.148
2018-07-25T08:20:50.584Z,0.120
2018-07-25T08:22:50.086Z,0.154
2018-07-25T08:24:50.273Z,0.154
2018-07-25T08:26:50.052Z,0.137
2018-07-25T08:28:50.252Z,0.194
2018-07-25T08:30:50.551Z,0.131
2018-07-25T08:32:49.808Z,0.125
2018-07-25T08:34:50.746Z,0.125
2018-07-25T08:36:50.287Z,0.160
2018-07-25T08:38:50.494Z,0.114
2018-07-25T08:40:50.680Z,0.154
2018-07-25T08:42:49.836Z,0.103
2018-07-25T08:44:50.144Z,0.177
2018-07-25T08:46:50.891Z,0.143
2018-07-25T08:48:50.239Z,0.137
2018-07-25T08:50:50.411Z,0.114
2018-07-25T08:52:51.061Z,0.160
2018-07-25T08:54:50.594Z,0.148
2018-07-25T08:56:50.103Z,0.137
2018-07-25T08:58:50.294Z,0.137
2018-07-25T09:00:50.464Z,0.160
2018-07-25T09:02:50.729Z,0.154
2018-07-25T09:04:50.409Z,0.194
2018-07-25T09:06:49.857Z,0.074
2018-07-25T09:08:50.024Z,0.108
2018-07-25T09:10:50.326Z,0.177
2018-07-25T09:12:51.379Z,0.171
2018-07-25T09:14:49.846Z,0.131
2018-07-25T09:16:50.687Z,0.165
2018-07-25T09:18:50.115Z,0.143
2018-07-25T09:20:50.270Z,0.143
2018-07-25T09:22:50.606Z,0.154
2018-07-25T09:24:49.809Z,0.137
2018-07-25T09:26:50.190Z,0.182
2018-07-25T09:28:50.632Z,0.165
2018-07-25T09:30:49.940Z,0.182
2018-07-25T09:32:52.206Z,0.171
2018-07-25T09:34:50.142Z,0.165
2018-07-25T09:36:50.724Z,0.125
2018-07-25T09:38:50.125Z,0.182
2018-07-25T09:40:50.809Z,0.188
2018-07-25T09:42:50.375Z,0.188
2018-07-25T09:44:50.852Z,0.194
2018-07-25T09:46:51.099Z,0.171
2018-07-25T09:48:50.820Z,0.188
2018-07-25T09:50:50.149Z,0.188
2018-07-25T09:52:50.754Z,0.120
2018-07-25T09:54:52.463Z,0.120
2018-07-25T09:56:50.619Z,0.137
2018-07-25T09:58:51.303Z,0.097
2018-07-25T10:00:50.123Z,0.097
2018-07-25T10:02:50.154Z,0.182
2018-07-25T10:04:50.039Z,0.148
2018-07-25T10:06:50.569Z,0.177
2018-07-25T10:08:49.888Z,0.154
2018-07-25T10:10:50.286Z,0.171
2018-07-25T10:12:50.583Z,0.154
2018-07-25T10:14:49.979Z,0.154
2018-07-25T10:16:52.032Z,0.154
2018-07-25T10:18:50.444Z,0.120
2018-07-25T10:20:51.615Z,0.114
2018-07-25T10:22:50.496Z,0.165
2018-07-25T10:24:51.953Z,0.137
2018-07-25T10:26:50.200Z,0.154
2018-07-25T10:28:50.746Z,0.114
2018-07-25T10:30:50.170Z,0.114
2018-07-25T10:32:50.892Z,0.137
2018-07-25T10:34:50.887Z,0.171
2018-07-25T10:36:50.361Z,0.114
2018-07-25T10:38:50.833Z,0.131
2018-07-25T10:40:50.303Z,0.131
2018-07-25T10:42:50.650Z,0.188
2018-07-25T10:44:49.990Z,0.131
2018-07-25T10:46:52.123Z,0.160
2018-07-25T10:48:50.962Z,0.148
2018-07-25T10:50:50.615Z,0.080
2018-07-25T10:52:50.793Z,0.143
2018-07-25T10:54:52.357Z,0.108
2018-07-25T10:56:50.586Z,0.137
2018-07-25T10:58:49.831Z,0.120
2018-07-25T11:00:50.115Z,0.182
2018-07-25T11:02:50.530Z,0.108
2018-07-25T11:04:50.443Z,0.143
2018-07-25T11:06:49.989Z,0.131
2018-07-25T11:08:50.315Z,0.120
2018-07-25T11:10:50.579Z,0.108
2018-07-25T11:12:50.125Z,0.131
2018-07-25T11:14:50.347Z,0.160
2018-07-25T11:16:49.831Z,0.091
2018-07-25T11:18:50.133Z,0.171
2018-07-25T11:20:50.415Z,0.154
2018-07-25T11:22:50.453Z,0.160
2018-07-25T11:24:49.938Z,0.125
2018-07-25T11:26:50.526Z,0.160
2018-07-25T11:28:49.814Z,0.143
2018-07-25T11:30:49.979Z,0.120
2018-07-25T11:32:50.889Z,0.148
2018-07-25T11:34:50.612Z,0.131
2018-07-25T11:36:50.194Z,0.131
2018-07-25T11:38:50.430Z,0.154
2018-07-25T11:40:50.632Z,0.114
2018-07-25T11:42:49.827Z,0.165
2018-07-25T11:44:50.099Z,0.137
2018-07-25T11:46:49.871Z,0.125
2018-07-25T11:48:50.079Z,0.125
2018-07-25T11:50:50.279Z,0.108
2018-07-25T11:52:50.552Z,0.165
2018-07-25T11:54:49.801Z,0.171
2018-07-25T11:56:50.260Z,0.131
2018-07-25T11:58:50.545Z,0.143
2018-07-25T12:00:50.064Z,0.148
2018-07-25T12:02:50.256Z,0.120
2018-07-25T12:04:49.835Z,0.131
2018-07-25T12:06:50.448Z,0.165
2018-07-25T12:08:50.031Z,0.125
2018-07-25T12:10:50.451Z,0.086
2018-07-25T12:12:50.123Z,0.160
2018-07-25T12:14:50.128Z,0.114
2018-07-25T12:16:50.636Z,0.188
2018-07-25T12:18:49.977Z,0.160
2018-07-25T12:20:50.403Z,0.137
2018-07-25T12:22:49.981Z,0.137
2018-07-25T12:24:50.455Z,0.154
2018-07-25T12:26:51.378Z,0.200
2018-07-25T12:28:50.122Z,0.103
2018-07-25T12:30:50.467Z,0.148
2018-07-25T12:32:49.947Z,0.137
2018-07-25T12:34:50.701Z,0.131
2018-07-25T12:36:51.304Z,0.125
2018-07-25T12:38:49.970Z,0.114
2018-07-25T12:40:50.387Z,0.177
2018-07-25T12:42:50.254Z,0.154
2018-07-25T12:44:50.765Z,0.194
2018-07-25T12:46:50.500Z,0.165
2018-07-25T12:48:52.041Z,0.137
2018-07-25T12:50:50.130Z,0.137
2018-07-25T12:52:50.413Z,0.131
2018-07-25T12:54:49.961Z,0.131
2018-07-25T12:56:50.607Z,0.125
2018-07-25T12:58:50.184Z,0.080
2018-07-25T13:00:50.764Z,0.137
2018-07-25T13:02:50.859Z,0.171
2018-07-25T13:04:49.950Z,0.143
2018-07-25T13:06:50.596Z,0.148
2018-07-25T13:08:50.063Z,0.148
2018-07-25T13:10:51.685Z,0.108
2018-07-25T13:12:50.248Z,0.143
2018-07-25T13:14:50.812Z,0.097
2018-07-25T13:16:50.437Z,0.160
2018-07-25T13:18:53.011Z,0.125
2018-07-25T13:20:50.831Z,0.131
2018-07-25T13:22:51.099Z,0.194
2018-07-25T13:24:50.493Z,0.160
2018-07-25T13:26:50.073Z,0.114
2018-07-25T13:28:51.081Z,0.040
2018-07-25T13:30:50.626Z,0.011
2018-07-25T13:32:50.020Z,0.000
2018-07-25T13:34:50.681Z,0.000
2018-07-25T13:36:50.405Z,0.000
2018-07-25T13:38:49.866Z,0.000
2018-07-25T13:40:52.145Z,0.000
2018-07-25T13:42:50.740Z,0.000
2018-07-25T13:44:50.476Z,0.000
2018-07-25T13:46:50.167Z,0.000
2018-07-25T13:48:52.176Z,0.046
2018-07-25T13:50:50.231Z,0.074
2018-07-25T13:52:50.542Z,0.006
2018-07-25T13:54:50.799Z,0.006
2018-07-25T13:56:50.409Z,0.000
2018-07-25T13:58:50.683Z,0.000
2018-07-25T14:00:50.031Z,0.000
2018-07-25T14:02:51.561Z,0.000
2018-07-25T14:04:50.368Z,0.000
2018-07-25T14:06:49.850Z,0.000
2018-07-25T14:08:50.295Z,0.000
2018-07-25T14:10:52.612Z,0.000
2018-07-25T14:12:50.567Z,0.000
2018-07-25T14:14:50.163Z,0.000
2018-07-25T14:16:50.691Z,0.000
2018-07-25T14:18:49.994Z,0.000
2018-07-25T14:20:50.496Z,0.000
2018-07-25T14:22:50.000Z,0.000
2018-07-25T14:24:50.332Z,0.000
2018-07-25T14:26:50.532Z,0.000
2018-07-25T14:28:50.961Z,0.000
2018-07-25T14:30:50.684Z,0.000
2018-07-25T14:32:52.146Z,0.000
2018-07-25T14:34:51.216Z,0.000
2018-07-25T14:36:50.305Z,0.000
2018-07-25T14:38:50.722Z,0.000
2018-07-25T14:40:50.037Z,0.000
2018-07-25T14:42:50.396Z,0.000
2018-07-25T14:44:50.889Z,0.000
2018-07-25T14:46:51.187Z,0.000
2018-07-25T14:48:49.886Z,0.000
2018-07-25T14:50:50.383Z,0.000
2018-07-25T14:52:50.793Z,0.000
2018-07-25T14:54:52.309Z,0.000
2018-07-25T14:56:50.642Z,0.000
2018-07-25T14:58:50.348Z,0.000
2018-07-25T15:00:50.588Z,0.000
2018-07-25T15:02:50.621Z,0.000
2018-07-25T15:04:49.858Z,0.000
2018-07-25T15:06:50.400Z,0.000
2018-07-25T15:08:50.510Z,0.000
2018-07-25T15:10:50.856Z,0.000
2018-07-25T15:12:50.276Z,0.000
2018-07-25T15:14:50.148Z,0.000
2018-07-25T15:16:52.931Z,0.000
2018-07-25T15:18:50.123Z,0.000
2018-07-25T15:20:50.464Z,0.000
2018-07-25T15:22:51.313Z,0.000
2018-07-25T15:24:49.985Z,0.000
2018-07-25T15:26:50.600Z,0.000
2018-07-25T15:28:49.883Z,0.000
2018-07-25T15:30:51.926Z,0.000
2018-07-25T15:32:50.007Z,0.000
2018-07-25T15:34:50.852Z,0.000
2018-07-25T15:36:50.550Z,0.000
2018-07-25T15:38:51.045Z,0.000
2018-07-25T15:40:50.639Z,0.000
2018-07-25T15:42:50.063Z,0.000
2018-07-25T15:44:52.690Z,0.000
2018-07-25T15:46:50.781Z,0.000
2018-07-25T15:48:50.452Z,0.000
2018-07-25T15:50:50.815Z,0.000
2018-07-25T15:52:50.770Z,0.000
2018-07-25T15:54:50.482Z,0.000
2018-07-25T15:56:50.125Z,0.000
2018-07-25T15:58:50.664Z,0.000
2018-07-25T16:00:49.992Z,0.000
2018-07-25T16:02:50.429Z,0.000
2018-07-25T16:04:50.180Z,0.000
2018-07-25T16:06:51.779Z,0.000
2018-07-25T16:08:50.267Z,0.000
2018-07-25T16:10:50.874Z,0.000
2018-07-25T16:12:50.523Z,0.000
2018-07-25T16:14:52.363Z,0.000
2018-07-25T16:16:50.273Z,0.000
2018-07-25T16:18:50.666Z,0.000
2018-07-25T16:20:50.239Z,0.000
2018-07-25T16:22:50.614Z,0.000
2018-07-25T16:24:49.954Z,0.000
2018-07-25T16:26:50.633Z,0.000
2018-07-25T16:28:50.076Z,0.000
2018-07-25T16:30:50.539Z,0.000
2018-07-25T16:32:50.077Z,0.000
2018-07-25T16:34:50.765Z,0.000
2018-07-25T16:36:52.001Z,0.000
2018-07-25T16:38:50.259Z,0.000
2018-07-25T16:40:50.637Z,0.000
2018-07-25T16:42:49.980Z,0.000
2018-07-25T16:44:50.325Z,0.000
2018-07-25T16:46:50.310Z,0.000
2018-07-25T16:48:50.769Z,0.000
2018-07-25T16:50:50.036Z,0.000
2018-07-25T16:52:50.525Z,0.000
2018-07-25T16:54:49.908Z,0.000
2018-07-25T16:56:51.060Z,0.000
2018-07-25T16:58:50.890Z,0.000
2018-07-25T17:00:50.424Z,0.000
2018-07-25T17:02:50.671Z,0.000
2018-07-25T17:04:50.545Z,0.000
2018-07-25T17:06:52.086Z,0.000
2018-07-25T17:08:50.785Z,0.000
2018-07-25T17:10:50.131Z,0.000
2018-07-25T17:12:50.456Z,0.000
2018-07-25T17:14:49.968Z,0.000
2018-07-25T17:16:50.529Z,0.000
2018-07-25T17:18:50.889Z,0.177
2018-07-25T17:20:50.397Z,0.131
2018-07-25T17:22:50.106Z,0.154
2018-07-25T17:24:50.428Z,0.120
2018-07-25T17:26:50.435Z,0.154
2018-07-25T17:28:52.236Z,0.125
2018-07-25T17:30:50.144Z,0.108
2018-07-25T17:32:50.599Z,0.188
2018-07-25T17:34:50.475Z,0.211
2018-07-25T17:36:50.274Z,0.165
2018-07-25T17:38:50.681Z,0.125
2018-07-25T17:40:50.461Z,0.154
2018-07-25T17:42:51.829Z,0.165
2018-07-25T17:44:50.251Z,0.143
2018-07-25T17:46:50.444Z,0.086
2018-07-25T17:48:50.171Z,0.120
2018-07-25T17:50:52.951Z,0.165
2018-07-25T17:52:51.076Z,0.148
2018-07-25T17:54:50.727Z,0.177
2018-07-25T17:56:50.705Z,0.080
2018-07-25T17:58:50.326Z,0.108
2018-07-25T18:00:50.839Z,0.143
2018-07-25T18:02:50.248Z,0.148
2018-07-25T18:04:51.829Z,0.103
2018-07-25T18:06:50.624Z,0.108
2018-07-25T18:08:49.933Z,0.154
2018-07-25T18:10:50.361Z,0.108
2018-07-25T18:12:52.866Z,0.160
2018-07-25T18:14:50.888Z,0.177
2018-07-25T18:16:50.452Z,0.148
2018-07-25T18:18:49.853Z,0.120
2018-07-25T18:20:50.308Z,0.108
2018-07-25T18:22:51.313Z,0.120
2018-07-25T18:24:50.030Z,0.137
2018-07-25T18:26:52.861Z,0.120
2018-07-25T18:28:50.821Z,0.086
2018-07-25T18:30:50.227Z,0.114
2018-07-25T18:32:50.853Z,0.137
2018-07-25T18:34:50.629Z,0.086
2018-07-25T18:36:50.463Z,0.114
2018-07-25T18:38:50.965Z,0.125
2018-07-25T18:40:52.849Z,0.114
2018-07-25T18:42:50.452Z,0.131
2018-07-25T18:44:49.971Z,0.234
2018-07-25T18:46:50.415Z,0.131
2018-07-25T18:48:49.962Z,0.182
2018-07-25T18:50:50.358Z,0.222
2018-07-25T18:52:50.692Z,0.103
2018-07-25T18:54:50.000Z,0.182
2018-07-25T18:56:50.435Z,0.143
2018-07-25T18:58:50.686Z,0.160
2018-07-25T19:00:49.920Z,0.160
2018-07-25T19:02:50.324Z,0.182
2018-07-25T19:04:49.908Z,0.137
2018-07-25T19:06:50.383Z,0.108
2018-07-25T19:08:50.756Z,0.182
2018-07-25T19:10:50.080Z,0.125
2018-07-25T19:12:50.257Z,0.177
2018-07-25T19:14:50.468Z,0.125
2018-07-25T19:16:50.502Z,0.177
2018-07-25T19:18:49.951Z,0.165
2018-07-25T19:20:50.146Z,0.125
2018-07-25T19:22:50.499Z,0.125
2018-07-25T19:24:50.738Z,0.182
2018-07-25T19:26:50.266Z,0.120
2018-07-25T19:28:50.478Z,0.131
2018-07-25T19:30:49.856Z,0.114
2018-07-25T19:32:50.133Z,0.177
2018-07-25T19:34:50.690Z,0.177
2018-07-25T19:36:50.312Z,0.177
2018-07-25T19:38:50.494Z,0.160
2018-07-25T19:40:50.586Z,0.194
2018-07-25T19:42:49.896Z,0.108
2018-07-25T19:44:50.155Z,0.103
2018-07-25T19:46:50.591Z,0.120
2018-07-25T19:48:49.858Z,0.154
2018-07-25T19:50:50.148Z,0.108
2018-07-25T19:52:50.403Z,0.165
2018-07-25T19:54:50.577Z,0.194
2018-07-25T19:56:50.073Z,0.137
2018-07-25T19:58:50.370Z,0.154
2018-07-25T20:00:50.944Z,0.114
2018-07-25T20:02:50.376Z,0.165
2018-07-25T20:04:50.200Z,0.171
2018-07-25T20:06:50.699Z,0.154
2018-07-25T20:08:50.128Z,0.137
2018-07-25T20:10:50.450Z,0.160
2018-07-25T20:12:50.732Z,0.137
2018-07-25T20:14:49.913Z,0.125
2018-07-25T20:16:51.203Z,0.171
2018-07-25T20:18:50.659Z,0.108
2018-07-25T20:20:49.839Z,0.114
2018-07-25T20:22:50.326Z,0.125
2018-07-25T20:24:50.611Z,0.103
2018-07-25T20:26:50.005Z,0.108
2018-07-25T20:28:50.219Z,0.143
2018-07-25T20:30:50.614Z,0.125
2018-07-25T20:32:49.982Z,0.148
2018-07-25T20:34:50.574Z,0.160
2018-07-25T20:36:50.011Z,0.131
2018-07-25T20:38:50.340Z,0.177
2018-07-25T20:40:50.560Z,0.148
2018-07-25T20:42:50.634Z,0.137
2018-07-25T20:44:50.014Z,0.171
2018-07-25T20:46:50.513Z,0.165
2018-07-25T20:48:49.823Z,0.143
2018-07-25T20:50:50.038Z,0.188
2018-07-25T20:52:50.358Z,0.137
2018-07-25T20:54:50.679Z,0.131
2018-07-25T20:56:50.015Z,0.222
2018-07-25T20:58:50.345Z,0.160
2018-07-25T21:00:50.996Z,0.091
2018-07-25T21:02:50.384Z,0.097
2018-07-25T21:04:50.104Z,0.120
2018-07-25T21:06:50.492Z,0.143
2018-07-25T21:08:50.695Z,0.143
2018-07-25T21:10:49.869Z,0.120
2018-07-25T21:12:50.333Z,0.120
2018-07-25T21:14:50.611Z,0.120
2018-07-25T21:18:49.966Z,0.120
2018-07-25T21:20:50.242Z,0.120
2018-07-25T21:22:50.466Z,0.143
2018-07-25T21:24:49.805Z,0.137
2018-07-25T21:26:50.264Z,0.137
2018-07-25T21:28:50.421Z,0.165
2018-07-25T21:30:50.710Z,0.131
2018-07-25T21:32:50.158Z,0.148
2018-07-25T21:34:49.984Z,0.194
2018-07-25T21:36:50.276Z,0.148
2018-07-25T21:38:50.594Z,0.160
2018-07-25T21:40:49.828Z,0.177
2018-07-25T21:42:50.033Z,0.154
2018-07-25T21:44:50.358Z,0.154
2018-07-25T21:46:49.881Z,0.120
2018-07-25T21:48:50.055Z,0.205
2018-07-25T21:50:50.604Z,0.148
2018-07-25T21:52:50.075Z,0.120
2018-07-25T21:54:50.235Z,0.120
2018-07-25T21:56:50.692Z,0.154
2018-07-25T21:58:49.996Z,0.165
2018-07-25T22:00:50.532Z,0.177
2018-07-25T22:02:50.767Z,0.131
2018-07-25T22:04:50.509Z,0.171
2018-07-25T22:06:50.091Z,0.171
2018-07-25T22:08:50.522Z,0.097
2018-07-25T22:10:50.660Z,0.114
2018-07-25T22:12:49.958Z,0.154
2018-07-25T22:14:50.194Z,0.137
2018-07-25T22:16:50.552Z,0.160
2018-07-25T22:18:50.768Z,0.182
2018-07-25T22:20:50.200Z,0.086
2018-07-25T22:22:50.524Z,0.114
2018-07-25T22:24:50.699Z,0.205
2018-07-25T22:26:50.231Z,0.188
2018-07-25T22:28:50.465Z,0.188
2018-07-25T22:30:50.735Z,0.148
2018-07-25T22:32:49.989Z,0.188
2018-07-25T22:34:50.570Z,0.182
2018-07-25T22:36:49.921Z,0.143
2018-07-25T22:38:50.085Z,0.160
2018-07-25T22:40:50.429Z,0.086
2018-07-25T22:42:50.722Z,0.154
2018-07-25T22:44:49.934Z,0.177
2018-07-25T22:46:50.402Z,0.160
2018-07-25T22:48:50.687Z,0.188
2018-07-25T22:50:50.097Z,0.177
2018-07-25T22:52:50.300Z,0.217
2018-07-25T22:54:50.534Z,0.120
2018-07-25T22:56:50.086Z,0.131
2018-07-25T22:58:50.260Z,0.165
2018-07-25T23:00:50.574Z,0.114
2018-07-25T23:02:49.971Z,0.143
2018-07-25T23:04:50.520Z,0.165
2018-07-25T23:06:50.078Z,0.125
2018-07-25T23:08:50.253Z,0.177
2018-07-25T23:10:50.526Z,0.160
2018-07-25T23:12:49.844Z,0.143
2018-07-25T23:14:50.059Z,0.108
2018-07-25T23:16:50.529Z,0.165
2018-07-25T23:18:50.713Z,0.143
2018-07-25T23:20:49.906Z,0.165
2018-07-25T23:22:50.137Z,0.160
2018-07-25T23:24:50.379Z,0.194
2018-07-25T23:26:50.773Z,0.120
2018-07-25T23:28:49.995Z,0.125
2018-07-25T23:30:50.196Z,0.177
2018-07-25T23:32:50.411Z,0.086
2018-07-25T23:34:49.986Z,0.148
2018-07-25T23:36:50.441Z,0.125
2018-07-25T23:38:49.796Z,0.131
2018-07-25T23:40:50.021Z,0.154
2018-07-25T23:42:50.317Z,0.143
2018-07-25T23:44:50.477Z,0.125
2018-07-25T23:46:50.134Z,0.125
2018-07-25T23:48:50.455Z,0.143
2018-07-25T23:50:49.874Z,0.154
2018-07-25T23:52:50.005Z,0.114
2018-07-25T23:54:50.114Z,0.143
2018-07-25T23:56:50.582Z,0.154
2018-07-25T23:58:49.792Z,0.114
